Otis Orchards, Washington
Current Conditions -  °F | °C
As of 2:53 AM on Friday 24 Oct 2014 (Local Time) from KSFF Reporting Station
Clear Clear  
Wind Chill: 43°   Ceiling: Unl
Heat Index: 46°   Visibility: 10mi
Dew Point: 40°   Wind: 6mph
Humidity: 79%   Direction: 190°S
Pressure: 30.04"   Gusts: NA
Location:  47.7°N, 117.11°W
Report Text: KSFF 240953Z AUTO 19005KT 10SM CLR 08/04 A3004 RMK AO2 SLP173 T00780044
Loading
Personal Weather Stations






























Interactive Weather Map
Tropical Storm Tracking
New forecast layout! Learn more

10-Day Weather Forecast

Advertisements
Track Severe Weather on mobile